Date,TemperatureHighF,TemperatureAvgF,TemperatureLowF,DewpointHighF,DewpointAvgF,DewpointLowF,HumidityHigh,HumidityAvg,HumidityLow,PressureMaxIn,PressureMinIn,WindSpeedMaxMPH,WindSpeedAvgMPH,GustSpeedMaxMPH,PrecipitationSumIn
2013-1-1,29.3,23.2,18.3,23.1,14.6,10.6,81,70,52,30.19,30.04,11,3,13,0.00
2013-1-2,25.8,22.4,16.6,20.4,17.4,12.2,85,81,74,30.23,30.10,8,5,11,0.00
2013-1-3,29.4,24.1,18.2,26.1,19.1,9.4,88,81,68,30.20,30.08,13,8,20,0.00
2013-1-4,31.7,28.7,25.7,25.0,22.4,20.4,86,77,68,30.20,30.02,21,14,28,0.00
2013-1-5,33.5,29.2,21.2,30.6,24.9,19.2,95,84,74,30.32,30.05,15,8,20,0.00
2013-1-6,34.7,33.5,32.0,33.1,30.4,27.2,95,88,78,30.29,29.93,13,7,20,0.01
2013-1-7,32.2,30.7,30.0,28.2,26.2,25.2,85,83,81,30.34,30.17,18,8,25,0.00
2013-1-8,32.8,30.6,27.7,27.7,26.3,23.5,88,84,80,30.26,30.18,12,7,15,0.00
2013-1-9,46.2,38.1,29.3,34.5,29.0,24.1,92,72,44,30.45,30.06,23,12,34,0.00
2013-1-10,37.7,33.8,27.9,33.2,29.3,25.0,91,83,73,30.56,30.22,10,4,15,0.08
2013-1-11,53.9,44.1,35.5,50.1,41.9,33.0,98,92,80,30.22,29.79,14,8,17,0.54
2013-1-12,56.9,49.9,45.5,51.2,46.9,43.5,97,90,74,29.95,29.84,12,6,14,0.00
2013-1-13,46.9,38.4,30.3,45.5,36.5,27.2,96,93,86,30.04,29.71,12,3,22,0.79
2013-1-14,30.3,24.4,20.3,27.2,18.9,15.9,88,79,65,30.47,30.04,17,6,29,0.00
2013-1-15,31.9,24.7,17.0,21.5,17.9,14.6,93,76,54,30.49,30.19,7,2,8,0.00
2013-1-16,34.4,27.3,22.5,28.8,22.8,20.1,91,83,65,30.19,29.92,17,4,24,0.00
2013-1-17,34.3,31.0,17.4,29.3,25.2,7.4,86,79,61,30.33,29.97,11,6,24,0.00
2013-1-18,35.1,23.2,16.2,25.5,15.3,7.9,85,72,60,30.46,30.00,26,9,37,0.00
2013-1-19,45.3,39.8,34.9,35.9,30.2,24.8,73,68,61,30.00,29.59,22,14,37,0.00
2013-1-20,21.0,18.8,15.7,10.4,8.0,5.9,68,62,56,30.20,30.09,17,9,26,0.00
2013-1-21,15.6,8.3,4.6,7.2,-0.7,-3.9,72,66,62,30.18,30.11,11,7,26,0.00
2013-1-22,7.8,3.4,-0.7,2.1,-4.0,-10.5,81,71,57,30.34,30.15,11,6,19,0.00
2013-1-23,14.7,8.3,4.8,11.3,2.6,-0.3,86,77,64,30.35,30.15,11,6,17,0.00
2013-1-24,22.6,13.4,8.4,11.2,8.1,4.5,87,80,50,30.64,30.17,5,3,10,0.00
2013-1-30,38.7,35.6,32.9,35.9,32.8,30.9,93,89,87,29.20,29.12,20,15,25,0.35
2013-1-31,32.8,23.8,16.4,30.9,17.5,11.5,93,77,68,29.90,29.20,23,14,35,0.00